sensor_id;sensor_type;location;lat;lon;timestamp;P1;durP1;ratioP1;P2;durP2;ratioP2
6356;SDS011;3211;53.452;-2.264;2023-02-18T00:00:58;1.57;;;1.30;;
6356;SDS011;3211;53.452;-2.264;2023-02-18T00:03:26;1.40;;;1.30;;
6356;SDS011;3211;53.452;-2.264;2023-02-18T00:05:58;1.60;;;1.50;;
6356;SDS011;3211;53.452;-2.264;2023-02-18T00:08:25;1.23;;;1.13;;
6356;SDS011;3211;53.452;-2.264;2023-02-18T00:10:55;1.50;;;1.40;;
6356;SDS011;3211;53.452;-2.264;2023-02-18T00:13:22;2.07;;;1.40;;
6356;SDS011;3211;53.452;-2.264;2023-02-18T00:15:49;2.60;;;1.43;;
6356;SDS011;3211;53.452;-2.264;2023-02-18T00:18:16;2.27;;;1.40;;
6356;SDS011;3211;53.452;-2.264;2023-02-18T00:20:43;2.17;;;1.53;;
6356;SDS011;3211;53.452;-2.264;2023-02-18T00:23:11;1.83;;;1.20;;
6356;SDS011;3211;53.452;-2.264;2023-02-18T00:25:38;2.57;;;1.30;;
6356;SDS011;3211;53.452;-2.264;2023-02-18T00:28:24;1.50;;;1.40;;
6356;SDS011;3211;53.452;-2.264;2023-02-18T00:30:51;1.40;;;1.30;;
6356;SDS011;3211;53.452;-2.264;2023-02-18T00:33:18;1.30;;;1.10;;
6356;SDS011;3211;53.452;-2.264;2023-02-18T00:35:45;1.33;;;1.17;;
6356;SDS011;3211;53.452;-2.264;2023-02-18T00:38:32;1.73;;;1.37;;
6356;SDS011;3211;53.452;-2.264;2023-02-18T00:41:00;1.40;;;1.30;;
6356;SDS011;3211;53.452;-2.264;2023-02-18T00:43:27;1.40;;;1.30;;
6356;SDS011;3211;53.452;-2.264;2023-02-18T00:45:57;2.37;;;1.70;;
6356;SDS011;3211;53.452;-2.264;2023-02-18T00:48:24;3.03;;;1.37;;
6356;SDS011;3211;53.452;-2.264;2023-02-18T00:50:54;1.40;;;1.30;;
6356;SDS011;3211;53.452;-2.264;2023-02-18T00:53:21;1.37;;;1.20;;
6356;SDS011;3211;53.452;-2.264;2023-02-18T00:55:52;1.87;;;1.60;;
6356;SDS011;3211;53.452;-2.264;2023-02-18T00:58:19;2.10;;;1.60;;
6356;SDS011;3211;53.452;-2.264;2023-02-18T01:00:47;2.70;;;1.40;;
6356;SDS011;3211;53.452;-2.264;2023-02-18T01:03:14;2.63;;;2.03;;
6356;SDS011;3211;53.452;-2.264;2023-02-18T01:05:41;2.17;;;1.47;;
6356;SDS011;3211;53.452;-2.264;2023-02-18T01:08:28;2.80;;;1.40;;
6356;SDS011;3211;53.452;-2.264;2023-02-18T01:10:56;2.03;;;1.40;;
6356;SDS011;3211;53.452;-2.264;2023-02-18T01:13:24;3.20;;;1.20;;
6356;SDS011;3211;53.452;-2.264;2023-02-18T01:15:52;3.73;;;1.40;;
6356;SDS011;3211;53.452;-2.264;2023-02-18T01:18:19;2.03;;;1.43;;
6356;SDS011;3211;53.452;-2.264;2023-02-18T01:20:50;1.20;;;1.10;;
6356;SDS011;3211;53.452;-2.264;2023-02-18T01:23:17;3.13;;;1.50;;
6356;SDS011;3211;53.452;-2.264;2023-02-18T01:25:44;1.70;;;1.57;;
6356;SDS011;3211;53.452;-2.264;2023-02-18T01:28:12;7.53;;;1.90;;
6356;SDS011;3211;53.452;-2.264;2023-02-18T01:30:40;1.60;;;1.50;;
6356;SDS011;3211;53.452;-2.264;2023-02-18T01:33:08;2.27;;;1.30;;
6356;SDS011;3211;53.452;-2.264;2023-02-18T01:35:36;2.60;;;1.40;;
6356;SDS011;3211;53.452;-2.264;2023-02-18T01:38:22;6.70;;;1.50;;
6356;SDS011;3211;53.452;-2.264;2023-02-18T01:40:50;3.83;;;1.97;;
6356;SDS011;3211;53.452;-2.264;2023-02-18T01:43:20;3.40;;;1.60;;
6356;SDS011;3211;53.452;-2.264;2023-02-18T01:45:55;3.77;;;1.50;;
6356;SDS011;3211;53.452;-2.264;2023-02-18T01:48:25;4.80;;;1.87;;
6356;SDS011;3211;53.452;-2.264;2023-02-18T01:50:56;2.63;;;1.63;;
6356;SDS011;3211;53.452;-2.264;2023-02-18T01:53:27;4.57;;;1.70;;
6356;SDS011;3211;53.452;-2.264;2023-02-18T01:55:58;4.23;;;1.63;;
6356;SDS011;3211;53.452;-2.264;2023-02-18T01:58:29;5.30;;;1.90;;
6356;SDS011;3211;53.452;-2.264;2023-02-18T02:00:57;2.50;;;1.70;;
6356;SDS011;3211;53.452;-2.264;2023-02-18T02:03:24;6.47;;;1.60;;
6356;SDS011;3211;53.452;-2.264;2023-02-18T02:05:54;5.20;;;1.60;;
6356;SDS011;3211;53.452;-2.264;2023-02-18T02:08:21;2.70;;;1.60;;
6356;SDS011;3211;53.452;-2.264;2023-02-18T02:10:58;3.73;;;1.60;;
6356;SDS011;3211;53.452;-2.264;2023-02-18T02:13:47;5.13;;;1.80;;
6356;SDS011;3211;53.452;-2.264;2023-02-18T02:16:25;2.10;;;1.60;;
6356;SDS011;3211;53.452;-2.264;2023-02-18T02:19:03;3.30;;;1.87;;
6356;SDS011;3211;53.452;-2.264;2023-02-18T02:25:10;2.90;;;1.50;;
6356;SDS011;3211;53.452;-2.264;2023-02-18T02:31:01;4.97;;;1.90;;
6356;SDS011;3211;53.452;-2.264;2023-02-18T02:33:50;3.90;;;1.50;;
6356;SDS011;3211;53.452;-2.264;2023-02-18T02:36:39;8.57;;;2.10;;
6356;SDS011;3211;53.452;-2.264;2023-02-18T02:39:16;5.63;;;1.73;;
6356;SDS011;3211;53.452;-2.264;2023-02-18T02:41:50;4.93;;;1.80;;
6356;SDS011;3211;53.452;-2.264;2023-02-18T02:44:26;8.07;;;2.80;;
6356;SDS011;3211;53.452;-2.264;2023-02-18T02:47:01;6.40;;;2.43;;
6356;SDS011;3211;53.452;-2.264;2023-02-18T02:49:36;4.97;;;1.50;;
6356;SDS011;3211;53.452;-2.264;2023-02-18T02:52:12;5.03;;;1.70;;
6356;SDS011;3211;53.452;-2.264;2023-02-18T02:54:42;13.13;;;2.60;;
6356;SDS011;3211;53.452;-2.264;2023-02-18T03:00:08;11.83;;;2.10;;
6356;SDS011;3211;53.452;-2.264;2023-02-18T03:02:40;3.83;;;1.87;;
6356;SDS011;3211;53.452;-2.264;2023-02-18T03:05:23;5.93;;;2.03;;
6356;SDS011;3211;53.452;-2.264;2023-02-18T03:08:06;7.10;;;1.90;;
6356;SDS011;3211;53.452;-2.264;2023-02-18T03:10:42;11.43;;;2.37;;
6356;SDS011;3211;53.452;-2.264;2023-02-18T03:13:15;5.87;;;2.27;;
6356;SDS011;3211;53.452;-2.264;2023-02-18T03:15:52;8.00;;;2.17;;
6356;SDS011;3211;53.452;-2.264;2023-02-18T03:18:22;5.50;;;2.40;;
6356;SDS011;3211;53.452;-2.264;2023-02-18T03:20:56;4.27;;;1.57;;
6356;SDS011;3211;53.452;-2.264;2023-02-18T03:23:30;3.37;;;1.70;;
6356;SDS011;3211;53.452;-2.264;2023-02-18T03:26:00;5.27;;;1.73;;
6356;SDS011;3211;53.452;-2.264;2023-02-18T03:28:29;7.53;;;1.90;;
6356;SDS011;3211;53.452;-2.264;2023-02-18T03:30:58;8.80;;;1.90;;
6356;SDS011;3211;53.452;-2.264;2023-02-18T03:33:29;7.70;;;2.30;;
6356;SDS011;3211;53.452;-2.264;2023-02-18T03:35:59;7.03;;;2.13;;
6356;SDS011;3211;53.452;-2.264;2023-02-18T03:38:30;6.53;;;1.87;;
6356;SDS011;3211;53.452;-2.264;2023-02-18T03:41:01;4.87;;;1.37;;
6356;SDS011;3211;53.452;-2.264;2023-02-18T03:43:28;2.87;;;1.63;;
6356;SDS011;3211;53.452;-2.264;2023-02-18T03:45:55;7.60;;;2.07;;
6356;SDS011;3211;53.452;-2.264;2023-02-18T03:48:22;2.83;;;1.20;;
6356;SDS011;3211;53.452;-2.264;2023-02-18T03:50:49;2.67;;;1.50;;
6356;SDS011;3211;53.452;-2.264;2023-02-18T03:53:16;6.67;;;1.40;;
6356;SDS011;3211;53.452;-2.264;2023-02-18T03:55:45;2.33;;;1.13;;
6356;SDS011;3211;53.452;-2.264;2023-02-18T03:58:12;3.50;;;1.57;;
6356;SDS011;3211;53.452;-2.264;2023-02-18T04:00:39;2.03;;;1.07;;
6356;SDS011;3211;53.452;-2.264;2023-02-18T04:03:05;5.40;;;1.50;;
6356;SDS011;3211;53.452;-2.264;2023-02-18T04:05:32;3.37;;;1.20;;
6356;SDS011;3211;53.452;-2.264;2023-02-18T04:08:00;2.37;;;1.10;;
6356;SDS011;3211;53.452;-2.264;2023-02-18T04:10:27;4.73;;;1.20;;
6356;SDS011;3211;53.452;-2.264;2023-02-18T04:12:55;2.47;;;1.10;;
6356;SDS011;3211;53.452;-2.264;2023-02-18T04:15:22;3.03;;;1.20;;
6356;SDS011;3211;53.452;-2.264;2023-02-18T04:17:49;2.00;;;1.30;;
6356;SDS011;3211;53.452;-2.264;2023-02-18T04:20:16;4.50;;;1.50;;
6356;SDS011;3211;53.452;-2.264;2023-02-18T04:22:43;1.77;;;1.03;;
6356;SDS011;3211;53.452;-2.264;2023-02-18T04:25:10;7.67;;;1.30;;
6356;SDS011;3211;53.452;-2.264;2023-02-18T04:27:37;2.50;;;1.30;;
6356;SDS011;3211;53.452;-2.264;2023-02-18T04:30:06;2.33;;;1.20;;
6356;SDS011;3211;53.452;-2.264;2023-02-18T04:32:34;6.47;;;1.67;;
6356;SDS011;3211;53.452;-2.264;2023-02-18T04:35:01;6.00;;;1.40;;
6356;SDS011;3211;53.452;-2.264;2023-02-18T04:37:28;3.57;;;1.40;;
6356;SDS011;3211;53.452;-2.264;2023-02-18T04:39:55;2.50;;;1.17;;
6356;SDS011;3211;53.452;-2.264;2023-02-18T04:42:22;2.23;;;1.30;;
6356;SDS011;3211;53.452;-2.264;2023-02-18T04:44:49;2.33;;;1.20;;
6356;SDS011;3211;53.452;-2.264;2023-02-18T04:47:17;1.40;;;1.20;;
6356;SDS011;3211;53.452;-2.264;2023-02-18T04:49:44;3.20;;;1.10;;
6356;SDS011;3211;53.452;-2.264;2023-02-18T04:52:11;2.13;;;1.20;;
6356;SDS011;3211;53.452;-2.264;2023-02-18T04:54:38;4.60;;;1.50;;
6356;SDS011;3211;53.452;-2.264;2023-02-18T04:57:05;2.00;;;1.30;;
6356;SDS011;3211;53.452;-2.264;2023-02-18T04:59:32;1.97;;;1.57;;
6356;SDS011;3211;53.452;-2.264;2023-02-18T05:01:59;3.33;;;1.20;;
6356;SDS011;3211;53.452;-2.264;2023-02-18T05:04:27;3.73;;;1.47;;
6356;SDS011;3211;53.452;-2.264;2023-02-18T05:06:54;2.43;;;1.20;;
6356;SDS011;3211;53.452;-2.264;2023-02-18T05:09:21;3.67;;;1.30;;
6356;SDS011;3211;53.452;-2.264;2023-02-18T05:11:49;1.10;;;0.90;;
6356;SDS011;3211;53.452;-2.264;2023-02-18T05:14:15;1.23;;;1.10;;
6356;SDS011;3211;53.452;-2.264;2023-02-18T05:16:42;3.10;;;1.60;;
6356;SDS011;3211;53.452;-2.264;2023-02-18T05:19:11;2.27;;;1.23;;
6356;SDS011;3211;53.452;-2.264;2023-02-18T05:21:41;1.40;;;1.07;;
6356;SDS011;3211;53.452;-2.264;2023-02-18T05:24:08;3.30;;;1.10;;
6356;SDS011;3211;53.452;-2.264;2023-02-18T05:26:35;1.40;;;1.10;;
6356;SDS011;3211;53.452;-2.264;2023-02-18T05:29:02;5.87;;;1.20;;
6356;SDS011;3211;53.452;-2.264;2023-02-18T05:31:30;3.60;;;1.30;;
6356;SDS011;3211;53.452;-2.264;2023-02-18T05:33:57;3.30;;;1.40;;
6356;SDS011;3211;53.452;-2.264;2023-02-18T05:36:24;2.37;;;1.20;;
6356;SDS011;3211;53.452;-2.264;2023-02-18T05:38:52;4.63;;;1.30;;
6356;SDS011;3211;53.452;-2.264;2023-02-18T05:41:19;1.70;;;1.20;;
6356;SDS011;3211;53.452;-2.264;2023-02-18T05:43:46;1.90;;;1.30;;
6356;SDS011;3211;53.452;-2.264;2023-02-18T05:46:31;1.33;;;1.03;;
6356;SDS011;3211;53.452;-2.264;2023-02-18T05:48:58;2.60;;;1.40;;
6356;SDS011;3211;53.452;-2.264;2023-02-18T05:51:25;2.60;;;1.20;;
6356;SDS011;3211;53.452;-2.264;2023-02-18T05:53:53;2.60;;;1.60;;
6356;SDS011;3211;53.452;-2.264;2023-02-18T05:56:20;4.90;;;1.63;;
6356;SDS011;3211;53.452;-2.264;2023-02-18T05:58:47;4.10;;;1.57;;
6356;SDS011;3211;53.452;-2.264;2023-02-18T06:01:14;6.43;;;1.87;;
6356;SDS011;3211;53.452;-2.264;2023-02-18T06:03:42;5.70;;;1.77;;
6356;SDS011;3211;53.452;-2.264;2023-02-18T06:06:09;4.40;;;1.97;;
6356;SDS011;3211;53.452;-2.264;2023-02-18T06:08:36;3.67;;;1.50;;
6356;SDS011;3211;53.452;-2.264;2023-02-18T06:11:04;4.10;;;1.60;;
6356;SDS011;3211;53.452;-2.264;2023-02-18T06:13:31;2.70;;;1.47;;
6356;SDS011;3211;53.452;-2.264;2023-02-18T06:15:58;4.10;;;1.47;;
6356;SDS011;3211;53.452;-2.264;2023-02-18T06:18:25;8.30;;;1.97;;
6356;SDS011;3211;53.452;-2.264;2023-02-18T06:20:52;9.90;;;2.27;;
6356;SDS011;3211;53.452;-2.264;2023-02-18T06:23:19;8.33;;;2.97;;
6356;SDS011;3211;53.452;-2.264;2023-02-18T06:25:47;5.47;;;1.70;;
6356;SDS011;3211;53.452;-2.264;2023-02-18T06:28:15;5.77;;;1.60;;
6356;SDS011;3211;53.452;-2.264;2023-02-18T06:30:43;7.13;;;1.67;;
6356;SDS011;3211;53.452;-2.264;2023-02-18T06:33:10;8.17;;;1.57;;
6356;SDS011;3211;53.452;-2.264;2023-02-18T06:35:37;9.00;;;1.90;;
6356;SDS011;3211;53.452;-2.264;2023-02-18T06:38:04;4.37;;;1.60;;
6356;SDS011;3211;53.452;-2.264;2023-02-18T06:40:31;4.00;;;1.60;;
6356;SDS011;3211;53.452;-2.264;2023-02-18T06:42:58;8.67;;;2.20;;
6356;SDS011;3211;53.452;-2.264;2023-02-18T06:45:26;5.80;;;2.10;;
6356;SDS011;3211;53.452;-2.264;2023-02-18T06:47:53;9.03;;;2.20;;
6356;SDS011;3211;53.452;-2.264;2023-02-18T06:50:20;9.67;;;1.60;;
6356;SDS011;3211;53.452;-2.264;2023-02-18T06:52:47;7.57;;;1.90;;
6356;SDS011;3211;53.452;-2.264;2023-02-18T06:55:14;5.83;;;1.60;;
6356;SDS011;3211;53.452;-2.264;2023-02-18T06:57:41;7.27;;;3.37;;
6356;SDS011;3211;53.452;-2.264;2023-02-18T07:00:08;6.63;;;1.80;;
6356;SDS011;3211;53.452;-2.264;2023-02-18T07:02:37;7.40;;;2.20;;
6356;SDS011;3211;53.452;-2.264;2023-02-18T07:05:04;5.20;;;2.13;;
6356;SDS011;3211;53.452;-2.264;2023-02-18T07:07:31;5.97;;;2.47;;
6356;SDS011;3211;53.452;-2.264;2023-02-18T07:09:58;9.00;;;2.00;;
6356;SDS011;3211;53.452;-2.264;2023-02-18T07:12:25;7.90;;;2.43;;
6356;SDS011;3211;53.452;-2.264;2023-02-18T07:14:52;3.60;;;1.60;;
6356;SDS011;3211;53.452;-2.264;2023-02-18T07:17:19;6.93;;;2.40;;
6356;SDS011;3211;53.452;-2.264;2023-02-18T07:19:48;13.33;;;2.50;;
6356;SDS011;3211;53.452;-2.264;2023-02-18T07:22:15;6.73;;;2.20;;
6356;SDS011;3211;53.452;-2.264;2023-02-18T07:24:42;7.23;;;2.20;;
6356;SDS011;3211;53.452;-2.264;2023-02-18T07:27:09;10.97;;;2.37;;
6356;SDS011;3211;53.452;-2.264;2023-02-18T07:29:36;10.30;;;2.00;;
6356;SDS011;3211;53.452;-2.264;2023-02-18T07:32:03;10.10;;;2.23;;
6356;SDS011;3211;53.452;-2.264;2023-02-18T07:34:31;6.13;;;1.90;;
6356;SDS011;3211;53.452;-2.264;2023-02-18T07:36:59;11.43;;;3.00;;
6356;SDS011;3211;53.452;-2.264;2023-02-18T07:39:26;5.80;;;2.33;;
6356;SDS011;3211;53.452;-2.264;2023-02-18T07:41:53;9.47;;;2.70;;
6356;SDS011;3211;53.452;-2.264;2023-02-18T07:44:20;10.67;;;2.90;;
6356;SDS011;3211;53.452;-2.264;2023-02-18T07:46:47;8.70;;;2.23;;
6356;SDS011;3211;53.452;-2.264;2023-02-18T07:49:15;11.93;;;3.80;;
6356;SDS011;3211;53.452;-2.264;2023-02-18T07:51:42;13.00;;;2.67;;
6356;SDS011;3211;53.452;-2.264;2023-02-18T07:54:13;9.47;;;2.20;;
6356;SDS011;3211;53.452;-2.264;2023-02-18T07:56:40;9.17;;;3.07;;
6356;SDS011;3211;53.452;-2.264;2023-02-18T07:59:07;10.33;;;2.20;;
6356;SDS011;3211;53.452;-2.264;2023-02-18T08:01:34;11.90;;;2.80;;
6356;SDS011;3211;53.452;-2.264;2023-02-18T08:04:02;14.47;;;2.90;;
6356;SDS011;3211;53.452;-2.264;2023-02-18T08:06:30;19.80;;;3.23;;
6356;SDS011;3211;53.452;-2.264;2023-02-18T08:08:59;7.50;;;2.00;;
6356;SDS011;3211;53.452;-2.264;2023-02-18T08:11:27;13.70;;;3.10;;
6356;SDS011;3211;53.452;-2.264;2023-02-18T08:13:54;17.47;;;3.00;;
6356;SDS011;3211;53.452;-2.264;2023-02-18T08:16:21;6.07;;;2.47;;
6356;SDS011;3211;53.452;-2.264;2023-02-18T08:18:48;16.40;;;3.30;;
6356;SDS011;3211;53.452;-2.264;2023-02-18T08:21:16;15.73;;;3.60;;
6356;SDS011;3211;53.452;-2.264;2023-02-18T08:23:44;10.03;;;2.90;;
6356;SDS011;3211;53.452;-2.264;2023-02-18T08:26:12;8.90;;;2.60;;
6356;SDS011;3211;53.452;-2.264;2023-02-18T08:28:41;6.10;;;2.23;;
6356;SDS011;3211;53.452;-2.264;2023-02-18T08:31:14;15.47;;;2.27;;
6356;SDS011;3211;53.452;-2.264;2023-02-18T08:33:42;10.70;;;3.23;;
6356;SDS011;3211;53.452;-2.264;2023-02-18T08:36:09;13.43;;;2.90;;
6356;SDS011;3211;53.452;-2.264;2023-02-18T08:38:36;8.60;;;2.27;;
6356;SDS011;3211;53.452;-2.264;2023-02-18T08:41:03;5.73;;;2.27;;
6356;SDS011;3211;53.452;-2.264;2023-02-18T08:43:32;11.57;;;2.70;;
6356;SDS011;3211;53.452;-2.264;2023-02-18T08:46:00;10.73;;;3.63;;
6356;SDS011;3211;53.452;-2.264;2023-02-18T08:48:28;9.80;;;2.40;;
6356;SDS011;3211;53.452;-2.264;2023-02-18T08:50:55;12.50;;;2.50;;
6356;SDS011;3211;53.452;-2.264;2023-02-18T08:53:22;11.33;;;2.97;;
6356;SDS011;3211;53.452;-2.264;2023-02-18T08:55:49;9.67;;;2.93;;
6356;SDS011;3211;53.452;-2.264;2023-02-18T08:58:16;5.30;;;2.40;;
6356;SDS011;3211;53.452;-2.264;2023-02-18T09:00:44;11.17;;;2.33;;
6356;SDS011;3211;53.452;-2.264;2023-02-18T09:03:13;9.00;;;2.37;;
6356;SDS011;3211;53.452;-2.264;2023-02-18T09:05:40;8.03;;;2.33;;
6356;SDS011;3211;53.452;-2.264;2023-02-18T09:08:07;14.57;;;2.87;;
6356;SDS011;3211;53.452;-2.264;2023-02-18T09:10:34;8.50;;;2.80;;
6356;SDS011;3211;53.452;-2.264;2023-02-18T09:13:03;8.93;;;2.53;;
6356;SDS011;3211;53.452;-2.264;2023-02-18T09:15:30;10.30;;;2.87;;
6356;SDS011;3211;53.452;-2.264;2023-02-18T09:17:57;9.37;;;2.30;;
6356;SDS011;3211;53.452;-2.264;2023-02-18T09:20:26;9.03;;;2.77;;
6356;SDS011;3211;53.452;-2.264;2023-02-18T09:22:53;8.27;;;2.50;;
6356;SDS011;3211;53.452;-2.264;2023-02-18T09:25:21;4.90;;;1.80;;
6356;SDS011;3211;53.452;-2.264;2023-02-18T09:27:48;9.13;;;3.30;;
6356;SDS011;3211;53.452;-2.264;2023-02-18T09:30:16;10.53;;;2.70;;
6356;SDS011;3211;53.452;-2.264;2023-02-18T09:32:43;9.70;;;2.30;;
6356;SDS011;3211;53.452;-2.264;2023-02-18T09:35:10;11.00;;;2.77;;
6356;SDS011;3211;53.452;-2.264;2023-02-18T09:37:38;6.50;;;2.53;;
6356;SDS011;3211;53.452;-2.264;2023-02-18T09:40:06;9.77;;;2.03;;
6356;SDS011;3211;53.452;-2.264;2023-02-18T09:42:34;8.53;;;2.20;;
6356;SDS011;3211;53.452;-2.264;2023-02-18T09:45:03;8.43;;;2.30;;
6356;SDS011;3211;53.452;-2.264;2023-02-18T09:47:33;7.00;;;2.10;;
6356;SDS011;3211;53.452;-2.264;2023-02-18T09:50:04;5.90;;;1.87;;
6356;SDS011;3211;53.452;-2.264;2023-02-18T09:52:34;13.53;;;2.20;;
6356;SDS011;3211;53.452;-2.264;2023-02-18T09:55:14;10.57;;;2.53;;
6356;SDS011;3211;53.452;-2.264;2023-02-18T09:57:44;5.60;;;1.83;;
6356;SDS011;3211;53.452;-2.264;2023-02-18T10:00:14;8.63;;;2.30;;
6356;SDS011;3211;53.452;-2.264;2023-02-18T10:02:48;8.07;;;1.97;;
6356;SDS011;3211;53.452;-2.264;2023-02-18T10:05:20;6.47;;;1.70;;
6356;SDS011;3211;53.452;-2.264;2023-02-18T10:07:50;6.57;;;1.97;;
6356;SDS011;3211;53.452;-2.264;2023-02-18T10:10:23;5.77;;;1.87;;
6356;SDS011;3211;53.452;-2.264;2023-02-18T10:12:56;7.10;;;2.37;;
6356;SDS011;3211;53.452;-2.264;2023-02-18T10:15:26;3.50;;;1.70;;
6356;SDS011;3211;53.452;-2.264;2023-02-18T10:17:55;6.63;;;1.80;;
6356;SDS011;3211;53.452;-2.264;2023-02-18T10:20:23;3.43;;;1.70;;
6356;SDS011;3211;53.452;-2.264;2023-02-18T10:22:54;6.00;;;1.97;;
6356;SDS011;3211;53.452;-2.264;2023-02-18T10:25:25;6.57;;;1.93;;
6356;SDS011;3211;53.452;-2.264;2023-02-18T10:27:53;9.77;;;2.53;;
6356;SDS011;3211;53.452;-2.264;2023-02-18T10:30:22;6.60;;;2.10;;
6356;SDS011;3211;53.452;-2.264;2023-02-18T10:32:54;5.60;;;1.90;;
6356;SDS011;3211;53.452;-2.264;2023-02-18T10:35:27;7.23;;;2.27;;
6356;SDS011;3211;53.452;-2.264;2023-02-18T10:38:01;7.60;;;1.80;;
6356;SDS011;3211;53.452;-2.264;2023-02-18T10:40:38;8.47;;;2.50;;
6356;SDS011;3211;53.452;-2.264;2023-02-18T10:43:13;4.30;;;1.70;;
6356;SDS011;3211;53.452;-2.264;2023-02-18T10:45:47;3.10;;;1.70;;
6356;SDS011;3211;53.452;-2.264;2023-02-18T10:48:23;3.93;;;1.77;;
6356;SDS011;3211;53.452;-2.264;2023-02-18T10:50:56;6.20;;;1.97;;
6356;SDS011;3211;53.452;-2.264;2023-02-18T10:53:29;7.37;;;1.97;;
6356;SDS011;3211;53.452;-2.264;2023-02-18T10:56:00;6.30;;;2.03;;
6356;SDS011;3211;53.452;-2.264;2023-02-18T10:58:31;11.03;;;2.47;;
6356;SDS011;3211;53.452;-2.264;2023-02-18T11:01:00;4.13;;;1.70;;
6356;SDS011;3211;53.452;-2.264;2023-02-18T11:03:39;6.73;;;2.30;;
6356;SDS011;3211;53.452;-2.264;2023-02-18T11:06:14;5.10;;;1.80;;
6356;SDS011;3211;53.452;-2.264;2023-02-18T11:08:45;4.80;;;1.80;;
6356;SDS011;3211;53.452;-2.264;2023-02-18T11:11:15;7.30;;;2.20;;
6356;SDS011;3211;53.452;-2.264;2023-02-18T11:13:43;8.60;;;2.13;;
6356;SDS011;3211;53.452;-2.264;2023-02-18T11:16:10;4.80;;;1.80;;
6356;SDS011;3211;53.452;-2.264;2023-02-18T11:18:38;4.87;;;1.93;;
6356;SDS011;3211;53.452;-2.264;2023-02-18T11:21:18;5.33;;;1.83;;
6356;SDS011;3211;53.452;-2.264;2023-02-18T11:23:51;7.37;;;1.70;;
6356;SDS011;3211;53.452;-2.264;2023-02-18T11:26:21;5.60;;;1.70;;
6356;SDS011;3211;53.452;-2.264;2023-02-18T11:28:55;6.83;;;2.00;;
6356;SDS011;3211;53.452;-2.264;2023-02-18T11:31:26;4.10;;;1.80;;
6356;SDS011;3211;53.452;-2.264;2023-02-18T11:34:05;7.13;;;1.93;;
6356;SDS011;3211;53.452;-2.264;2023-02-18T11:36:38;10.40;;;1.83;;
6356;SDS011;3211;53.452;-2.264;2023-02-18T11:39:05;3.00;;;1.73;;
6356;SDS011;3211;53.452;-2.264;2023-02-18T11:41:45;10.03;;;2.03;;
6356;SDS011;3211;53.452;-2.264;2023-02-18T11:44:18;8.20;;;2.13;;
6356;SDS011;3211;53.452;-2.264;2023-02-18T11:46:55;4.87;;;2.10;;
6356;SDS011;3211;53.452;-2.264;2023-02-18T11:49:24;3.57;;;1.80;;
6356;SDS011;3211;53.452;-2.264;2023-02-18T11:52:14;7.83;;;2.30;;
6356;SDS011;3211;53.452;-2.264;2023-02-18T11:54:46;5.83;;;2.53;;
6356;SDS011;3211;53.452;-2.264;2023-02-18T11:57:45;6.43;;;2.50;;
6356;SDS011;3211;53.452;-2.264;2023-02-18T12:00:20;5.80;;;2.60;;
6356;SDS011;3211;53.452;-2.264;2023-02-18T12:02:54;5.60;;;1.90;;
6356;SDS011;3211;53.452;-2.264;2023-02-18T12:05:26;7.77;;;3.00;;
6356;SDS011;3211;53.452;-2.264;2023-02-18T12:07:55;5.60;;;2.70;;
6356;SDS011;3211;53.452;-2.264;2023-02-18T12:10:26;5.67;;;2.10;;
6356;SDS011;3211;53.452;-2.264;2023-02-18T12:12:59;5.33;;;2.33;;
6356;SDS011;3211;53.452;-2.264;2023-02-18T12:15:40;5.47;;;2.13;;
6356;SDS011;3211;53.452;-2.264;2023-02-18T12:18:19;10.50;;;2.30;;
6356;SDS011;3211;53.452;-2.264;2023-02-18T12:20:56;6.17;;;2.10;;
6356;SDS011;3211;53.452;-2.264;2023-02-18T12:23:34;6.23;;;1.77;;
6356;SDS011;3211;53.452;-2.264;2023-02-18T12:26:12;7.13;;;2.33;;
6356;SDS011;3211;53.452;-2.264;2023-02-18T12:28:56;7.20;;;2.10;;
6356;SDS011;3211;53.452;-2.264;2023-02-18T12:31:40;8.30;;;3.57;;
6356;SDS011;3211;53.452;-2.264;2023-02-18T12:34:29;5.90;;;2.80;;
6356;SDS011;3211;53.452;-2.264;2023-02-18T12:37:08;6.27;;;2.43;;
6356;SDS011;3211;53.452;-2.264;2023-02-18T12:39:53;6.10;;;2.00;;
6356;SDS011;3211;53.452;-2.264;2023-02-18T12:42:34;8.20;;;2.37;;
6356;SDS011;3211;53.452;-2.264;2023-02-18T12:45:24;4.27;;;2.10;;
6356;SDS011;3211;53.452;-2.264;2023-02-18T12:48:09;8.20;;;2.70;;
6356;SDS011;3211;53.452;-2.264;2023-02-18T12:54:00;7.73;;;2.07;;
6356;SDS011;3211;53.452;-2.264;2023-02-18T12:56:56;8.50;;;1.97;;
6356;SDS011;3211;53.452;-2.264;2023-02-18T12:59:39;6.67;;;2.30;;
6356;SDS011;3211;53.452;-2.264;2023-02-18T13:02:26;4.63;;;1.83;;
6356;SDS011;3211;53.452;-2.264;2023-02-18T13:05:05;4.50;;;1.50;;
6356;SDS011;3211;53.452;-2.264;2023-02-18T13:07:44;8.93;;;1.77;;
6356;SDS011;3211;53.452;-2.264;2023-02-18T13:10:23;5.03;;;1.80;;
6356;SDS011;3211;53.452;-2.264;2023-02-18T13:13:06;3.37;;;1.47;;
6356;SDS011;3211;53.452;-2.264;2023-02-18T13:15:36;4.90;;;2.07;;
6356;SDS011;3211;53.452;-2.264;2023-02-18T13:18:10;5.10;;;1.60;;
6356;SDS011;3211;53.452;-2.264;2023-02-18T13:20:41;4.13;;;1.83;;
6356;SDS011;3211;53.452;-2.264;2023-02-18T13:23:14;4.00;;;1.40;;
6356;SDS011;3211;53.452;-2.264;2023-02-18T13:25:44;3.00;;;1.60;;
6356;SDS011;3211;53.452;-2.264;2023-02-18T13:28:16;5.50;;;1.70;;
6356;SDS011;3211;53.452;-2.264;2023-02-18T13:30:47;5.70;;;2.07;;
6356;SDS011;3211;53.452;-2.264;2023-02-18T13:33:20;4.77;;;2.00;;
6356;SDS011;3211;53.452;-2.264;2023-02-18T13:35:55;5.70;;;1.60;;
6356;SDS011;3211;53.452;-2.264;2023-02-18T13:41:33;5.20;;;1.67;;
6356;SDS011;3211;53.452;-2.264;2023-02-18T13:44:05;5.20;;;2.57;;
6356;SDS011;3211;53.452;-2.264;2023-02-18T13:46:46;5.47;;;1.90;;
6356;SDS011;3211;53.452;-2.264;2023-02-18T13:49:16;6.10;;;2.20;;
6356;SDS011;3211;53.452;-2.264;2023-02-18T13:51:46;5.70;;;1.70;;
6356;SDS011;3211;53.452;-2.264;2023-02-18T13:54:17;5.80;;;1.80;;
6356;SDS011;3211;53.452;-2.264;2023-02-18T13:56:49;7.77;;;2.03;;
6356;SDS011;3211;53.452;-2.264;2023-02-18T13:59:19;5.47;;;2.50;;
6356;SDS011;3211;53.452;-2.264;2023-02-18T14:01:50;5.60;;;1.70;;
6356;SDS011;3211;53.452;-2.264;2023-02-18T14:07:20;8.40;;;2.03;;
6356;SDS011;3211;53.452;-2.264;2023-02-18T14:09:52;4.63;;;1.47;;
6356;SDS011;3211;53.452;-2.264;2023-02-18T14:12:34;4.93;;;2.37;;
6356;SDS011;3211;53.452;-2.264;2023-02-18T14:18:09;5.97;;;1.73;;
6356;SDS011;3211;53.452;-2.264;2023-02-18T14:20:49;3.50;;;1.70;;
6356;SDS011;3211;53.452;-2.264;2023-02-18T14:28:57;6.80;;;1.87;;
6356;SDS011;3211;53.452;-2.264;2023-02-18T14:31:29;6.33;;;2.07;;
6356;SDS011;3211;53.452;-2.264;2023-02-18T14:37:10;6.17;;;1.70;;
6356;SDS011;3211;53.452;-2.264;2023-02-18T14:40:02;5.10;;;1.73;;
6356;SDS011;3211;53.452;-2.264;2023-02-18T14:42:54;8.77;;;2.57;;
6356;SDS011;3211;53.452;-2.264;2023-02-18T14:45:38;3.93;;;1.70;;
6356;SDS011;3211;53.452;-2.264;2023-02-18T14:48:26;6.20;;;3.77;;
6356;SDS011;3211;53.452;-2.264;2023-02-18T14:51:15;4.43;;;2.13;;
6356;SDS011;3211;53.452;-2.264;2023-02-18T14:53:46;3.50;;;1.83;;
6356;SDS011;3211;53.452;-2.264;2023-02-18T14:56:13;6.03;;;1.80;;
6356;SDS011;3211;53.452;-2.264;2023-02-18T14:58:43;5.33;;;1.63;;
6356;SDS011;3211;53.452;-2.264;2023-02-18T15:01:15;6.27;;;1.87;;
6356;SDS011;3211;53.452;-2.264;2023-02-18T15:03:45;4.90;;;1.60;;
6356;SDS011;3211;53.452;-2.264;2023-02-18T15:06:23;2.97;;;1.70;;
6356;SDS011;3211;53.452;-2.264;2023-02-18T15:08:54;2.97;;;1.57;;
6356;SDS011;3211;53.452;-2.264;2023-02-18T15:11:23;4.27;;;1.47;;
6356;SDS011;3211;53.452;-2.264;2023-02-18T15:13:56;3.80;;;1.90;;
6356;SDS011;3211;53.452;-2.264;2023-02-18T15:16:26;5.23;;;1.80;;
6356;SDS011;3211;53.452;-2.264;2023-02-18T15:18:57;3.10;;;1.43;;
6356;SDS011;3211;53.452;-2.264;2023-02-18T15:21:28;3.73;;;2.03;;
6356;SDS011;3211;53.452;-2.264;2023-02-18T15:23:59;4.37;;;2.00;;
6356;SDS011;3211;53.452;-2.264;2023-02-18T15:26:30;2.60;;;1.37;;
6356;SDS011;3211;53.452;-2.264;2023-02-18T15:28:58;8.73;;;1.77;;
6356;SDS011;3211;53.452;-2.264;2023-02-18T15:31:27;6.60;;;2.17;;
6356;SDS011;3211;53.452;-2.264;2023-02-18T15:33:55;7.33;;;1.80;;
6356;SDS011;3211;53.452;-2.264;2023-02-18T15:36:24;6.67;;;2.10;;
6356;SDS011;3211;53.452;-2.264;2023-02-18T15:38:51;5.17;;;2.00;;
6356;SDS011;3211;53.452;-2.264;2023-02-18T15:41:20;5.93;;;1.90;;
6356;SDS011;3211;53.452;-2.264;2023-02-18T15:43:51;7.10;;;1.70;;
6356;SDS011;3211;53.452;-2.264;2023-02-18T15:46:19;5.87;;;2.10;;
6356;SDS011;3211;53.452;-2.264;2023-02-18T15:48:50;3.87;;;1.90;;
6356;SDS011;3211;53.452;-2.264;2023-02-18T15:51:19;8.33;;;2.47;;
6356;SDS011;3211;53.452;-2.264;2023-02-18T15:53:48;4.70;;;1.93;;